sensor_id;sensor_type;location;lat;lon;timestamp;pressure;altitude;pressure_sealevel;temperature;humidity
49194;BME280;35029;50.804;12.866;2023-07-30T00:01:11;97135.03;;;16.75;100.00
49194;BME280;35029;50.804;12.866;2023-07-30T00:03:38;97132.09;;;16.77;100.00
49194;BME280;35029;50.804;12.866;2023-07-30T00:06:03;97126.19;;;16.75;100.00
49194;BME280;35029;50.804;12.866;2023-07-30T00:08:29;97130.91;;;16.67;100.00
49194;BME280;35029;50.804;12.866;2023-07-30T00:10:57;97111.69;;;16.48;100.00
49194;BME280;35029;50.804;12.866;2023-07-30T00:13:23;97123.31;;;16.59;100.00
49194;BME280;35029;50.804;12.866;2023-07-30T00:15:49;97126.81;;;16.60;100.00
49194;BME280;35029;50.804;12.866;2023-07-30T00:18:14;97129.75;;;16.58;100.00
49194;BME280;35029;50.804;12.866;2023-07-30T00:20:40;97112.75;;;16.47;100.00
49194;BME280;35029;50.804;12.866;2023-07-30T00:23:06;97120.66;;;16.59;100.00
49194;BME280;35029;50.804;12.866;2023-07-30T00:25:32;97093.66;;;16.38;100.00
49194;BME280;35029;50.804;12.866;2023-07-30T00:27:57;97115.81;;;16.56;100.00
49194;BME280;35029;50.804;12.866;2023-07-30T00:30:23;97115.00;;;16.55;100.00
49194;BME280;35029;50.804;12.866;2023-07-30T00:32:48;97116.31;;;16.53;100.00
49194;BME280;35029;50.804;12.866;2023-07-30T00:35:14;97086.72;;;16.37;100.00
49194;BME280;35029;50.804;12.866;2023-07-30T00:37:39;97110.25;;;16.63;100.00
49194;BME280;35029;50.804;12.866;2023-07-30T00:40:06;97102.50;;;16.61;100.00
49194;BME280;35029;50.804;12.866;2023-07-30T00:42:32;97122.09;;;16.67;100.00
49194;BME280;35029;50.804;12.866;2023-07-30T00:44:57;97123.66;;;16.63;100.00
49194;BME280;35029;50.804;12.866;2023-07-30T00:47:23;97135.59;;;16.55;100.00
49194;BME280;35029;50.804;12.866;2023-07-30T00:49:49;97133.56;;;16.62;100.00
49194;BME280;35029;50.804;12.866;2023-07-30T00:52:20;97127.13;;;16.63;100.00
49194;BME280;35029;50.804;12.866;2023-07-30T00:54:48;97137.88;;;16.68;100.00
49194;BME280;35029;50.804;12.866;2023-07-30T00:57:15;97105.09;;;16.56;100.00
49194;BME280;35029;50.804;12.866;2023-07-30T00:59:42;97133.47;;;16.79;100.00
49194;BME280;35029;50.804;12.866;2023-07-30T01:02:08;97112.91;;;16.85;100.00
49194;BME280;35029;50.804;12.866;2023-07-30T01:04:33;97121.53;;;16.87;100.00
49194;BME280;35029;50.804;12.866;2023-07-30T01:06:59;97115.31;;;16.81;100.00
49194;BME280;35029;50.804;12.866;2023-07-30T01:09:26;97128.50;;;16.88;100.00
49194;BME280;35029;50.804;12.866;2023-07-30T01:11:53;97120.53;;;16.93;100.00
49194;BME280;35029;50.804;12.866;2023-07-30T01:14:21;97120.53;;;16.93;100.00
49194;BME280;35029;50.804;12.866;2023-07-30T01:16:48;97109.94;;;16.81;100.00
49194;BME280;35029;50.804;12.866;2023-07-30T01:19:14;97122.03;;;16.84;100.00
49194;BME280;35029;50.804;12.866;2023-07-30T01:21:40;97127.84;;;16.81;100.00
49194;BME280;35029;50.804;12.866;2023-07-30T01:24:05;97115.09;;;16.66;100.00
49194;BME280;35029;50.804;12.866;2023-07-30T01:26:37;97117.78;;;16.66;100.00
49194;BME280;35029;50.804;12.866;2023-07-30T01:29:08;97133.09;;;16.70;100.00
49194;BME280;35029;50.804;12.866;2023-07-30T01:31:35;97137.88;;;16.68;100.00
49194;BME280;35029;50.804;12.866;2023-07-30T01:34:03;97137.28;;;16.61;100.00
49194;BME280;35029;50.804;12.866;2023-07-30T01:36:29;97141.31;;;16.64;100.00
49194;BME280;35029;50.804;12.866;2023-07-30T01:38:56;97133.81;;;16.61;100.00
49194;BME280;35029;50.804;12.866;2023-07-30T01:41:22;97142.56;;;16.56;100.00
49194;BME280;35029;50.804;12.866;2023-07-30T01:43:49;97141.38;;;16.47;100.00
49194;BME280;35029;50.804;12.866;2023-07-30T01:46:15;97140.56;;;16.46;100.00
49194;BME280;35029;50.804;12.866;2023-07-30T01:48:40;97134.97;;;16.48;100.00
49194;BME280;35029;50.804;12.866;2023-07-30T01:51:06;97131.00;;;16.50;100.00
49194;BME280;35029;50.804;12.866;2023-07-30T01:53:31;97122.47;;;16.53;100.00
49194;BME280;35029;50.804;12.866;2023-07-30T01:55:57;97129.75;;;16.58;100.00
49194;BME280;35029;50.804;12.866;2023-07-30T01:58:23;97127.13;;;16.63;100.00
49194;BME280;35029;50.804;12.866;2023-07-30T02:00:48;97129.25;;;16.61;100.00
49194;BME280;35029;50.804;12.866;2023-07-30T02:03:14;97132.69;;;16.56;100.00
49194;BME280;35029;50.804;12.866;2023-07-30T02:05:39;97118.47;;;16.56;100.00
49194;BME280;35029;50.804;12.866;2023-07-30T02:08:05;97117.97;;;16.59;100.00
49194;BME280;35029;50.804;12.866;2023-07-30T02:10:30;97120.44;;;16.61;100.00
49194;BME280;35029;50.804;12.866;2023-07-30T02:12:56;97110.59;;;16.66;100.00
49194;BME280;35029;50.804;12.866;2023-07-30T02:15:21;97121.75;;;16.63;100.00
49194;BME280;35029;50.804;12.866;2023-07-30T02:17:47;97123.09;;;16.61;100.00
49194;BME280;35029;50.804;12.866;2023-07-30T02:20:12;97121.97;;;16.56;100.00
49194;BME280;35029;50.804;12.866;2023-07-30T02:22:38;97127.81;;;16.53;100.00
49194;BME280;35029;50.804;12.866;2023-07-30T02:25:03;97132.91;;;16.55;100.00
49194;BME280;35029;50.804;12.866;2023-07-30T02:27:29;97124.94;;;16.60;100.00
49194;BME280;35029;50.804;12.866;2023-07-30T02:29:55;97135.16;;;16.63;100.00
49194;BME280;35029;50.804;12.866;2023-07-30T02:32:20;97120.09;;;16.57;100.00
49194;BME280;35029;50.804;12.866;2023-07-30T02:34:46;97123.09;;;16.61;100.00
49194;BME280;35029;50.804;12.866;2023-07-30T02:37:11;97129.50;;;16.60;100.00
49194;BME280;35029;50.804;12.866;2023-07-30T02:39:37;97138.25;;;16.55;100.00
49194;BME280;35029;50.804;12.866;2023-07-30T02:42:02;97135.59;;;16.55;100.00
49194;BME280;35029;50.804;12.866;2023-07-30T02:44:28;97124.16;;;16.60;100.00
49194;BME280;35029;50.804;12.866;2023-07-30T02:46:53;97119.06;;;16.58;100.00
49194;BME280;35029;50.804;12.866;2023-07-30T02:49:19;97120.91;;;16.58;100.00
49194;BME280;35029;50.804;12.866;2023-07-30T02:51:44;97123.31;;;16.59;100.00
49194;BME280;35029;50.804;12.866;2023-07-30T02:54:14;97123.28;;;16.54;100.00
49194;BME280;35029;50.804;12.866;2023-07-30T02:56:42;97122.47;;;16.53;100.00
49194;BME280;35029;50.804;12.866;2023-07-30T02:59:08;97108.97;;;16.43;100.00
49194;BME280;35029;50.804;12.866;2023-07-30T03:01:33;97116.81;;;16.50;100.00
49194;BME280;35029;50.804;12.866;2023-07-30T03:03:59;97122.63;;;16.47;100.00
49194;BME280;35029;50.804;12.866;2023-07-30T03:06:24;97128.16;;;16.40;100.00
49194;BME280;35029;50.804;12.866;2023-07-30T03:08:50;97123.81;;;16.34;100.00
49194;BME280;35029;50.804;12.866;2023-07-30T03:11:16;97122.19;;;16.33;100.00
49194;BME280;35029;50.804;12.866;2023-07-30T03:13:41;97128.84;;;16.30;100.00
49194;BME280;35029;50.804;12.866;2023-07-30T03:16:06;97129.34;;;16.27;100.00
49194;BME280;35029;50.804;12.866;2023-07-30T03:18:32;97117.84;;;16.27;100.00
49194;BME280;35029;50.804;12.866;2023-07-30T03:21:01;97116.91;;;16.16;100.00
49194;BME280;35029;50.804;12.866;2023-07-30T03:23:27;97120.81;;;16.08;100.00
49194;BME280;35029;50.804;12.866;2023-07-30T03:25:53;97121.06;;;16.07;100.00
49194;BME280;35029;50.804;12.866;2023-07-30T03:28:18;97123.41;;;16.03;100.00
49194;BME280;35029;50.804;12.866;2023-07-30T03:30:44;97115.72;;;16.07;100.00
49194;BME280;35029;50.804;12.866;2023-07-30T03:33:09;97123.72;;;16.07;100.00
49194;BME280;35029;50.804;12.866;2023-07-30T03:35:35;97134.66;;;16.05;100.00
49194;BME280;35029;50.804;12.866;2023-07-30T03:38:00;97134.50;;;16.12;100.00
49194;BME280;35029;50.804;12.866;2023-07-30T03:40:27;97138.22;;;16.11;100.00
49194;BME280;35029;50.804;12.866;2023-07-30T03:42:53;97134.78;;;16.15;100.00
49194;BME280;35029;50.804;12.866;2023-07-30T03:45:19;97122.44;;;16.09;100.00
49194;BME280;35029;50.804;12.866;2023-07-30T03:47:44;97125.97;;;16.15;100.00
49194;BME280;35029;50.804;12.866;2023-07-30T03:50:10;97127.09;;;16.19;100.00
49194;BME280;35029;50.804;12.866;2023-07-30T03:52:35;97130.66;;;16.25;100.00
49194;BME280;35029;50.804;12.866;2023-07-30T03:55:01;97134.88;;;16.20;100.00
49194;BME280;35029;50.804;12.866;2023-07-30T03:57:27;97133.56;;;16.23;100.00
49194;BME280;35029;50.804;12.866;2023-07-30T03:59:52;97132.53;;;16.24;100.00
49194;BME280;35029;50.804;12.866;2023-07-30T04:02:18;97140.63;;;16.29;100.00
49194;BME280;35029;50.804;12.866;2023-07-30T04:04:43;97136.94;;;16.35;100.00
49194;BME280;35029;50.804;12.866;2023-07-30T04:07:10;97135.41;;;16.39;100.00
49194;BME280;35029;50.804;12.866;2023-07-30T04:09:36;97125.28;;;16.42;100.00
49194;BME280;35029;50.804;12.866;2023-07-30T04:12:02;97134.97;;;16.48;100.00
49194;BME280;35029;50.804;12.866;2023-07-30T04:14:27;97141.13;;;16.48;100.00
49194;BME280;35029;50.804;12.866;2023-07-30T04:16:53;97137.13;;;16.51;100.00
49194;BME280;35029;50.804;12.866;2023-07-30T04:19:18;97138.75;;;16.52;100.00
49194;BME280;35029;50.804;12.866;2023-07-30T04:21:44;97136.66;;;16.54;100.00
49194;BME280;35029;50.804;12.866;2023-07-30T04:24:10;97146.34;;;16.60;100.00
49194;BME280;35029;50.804;12.866;2023-07-30T04:26:36;97145.91;;;16.68;100.00
49194;BME280;35029;50.804;12.866;2023-07-30T04:29:01;97145.72;;;16.75;100.00
49194;BME280;35029;50.804;12.866;2023-07-30T04:31:27;97146.06;;;16.79;100.00
49194;BME280;35029;50.804;12.866;2023-07-30T04:33:53;97157.31;;;16.81;100.00
49194;BME280;35029;50.804;12.866;2023-07-30T04:36:18;97157.56;;;16.79;100.00
49194;BME280;35029;50.804;12.866;2023-07-30T04:38:47;97157.03;;;16.82;100.00
49194;BME280;35029;50.804;12.866;2023-07-30T04:41:12;97156.31;;;16.87;100.00
49194;BME280;35029;50.804;12.866;2023-07-30T04:43:43;97157.13;;;16.87;100.00
49194;BME280;35029;50.804;12.866;2023-07-30T04:46:11;97144.94;;;16.75;100.00
49194;BME280;35029;50.804;12.866;2023-07-30T04:48:40;97159.31;;;16.90;100.00
49194;BME280;35029;50.804;12.866;2023-07-30T04:51:07;97162.88;;;16.96;100.00
49194;BME280;35029;50.804;12.866;2023-07-30T04:53:32;97171.78;;;17.02;100.00
49194;BME280;35029;50.804;12.866;2023-07-30T04:55:58;97147.09;;;17.00;100.00
49194;BME280;35029;50.804;12.866;2023-07-30T04:58:24;97139.94;;;17.05;100.00
49194;BME280;35029;50.804;12.866;2023-07-30T05:00:50;97163.19;;;17.27;100.00
49194;BME280;35029;50.804;12.866;2023-07-30T05:03:15;97144.69;;;17.26;100.00
49194;BME280;35029;50.804;12.866;2023-07-30T05:05:41;97158.25;;;17.41;100.00
49194;BME280;35029;50.804;12.866;2023-07-30T05:08:07;97156.16;;;17.48;100.00
49194;BME280;35029;50.804;12.866;2023-07-30T05:10:33;97162.06;;;17.50;100.00
49194;BME280;35029;50.804;12.866;2023-07-30T05:12:58;97136.81;;;17.41;100.00
49194;BME280;35029;50.804;12.866;2023-07-30T05:15:24;97161.69;;;17.69;100.00
49194;BME280;35029;50.804;12.866;2023-07-30T05:17:50;97168.16;;;17.73;100.00
49194;BME280;35029;50.804;12.866;2023-07-30T05:20:15;97146.41;;;17.69;100.00
49194;BME280;35029;50.804;12.866;2023-07-30T05:22:41;97158.06;;;17.85;100.00
49194;BME280;35029;50.804;12.866;2023-07-30T05:25:07;97147.03;;;17.82;100.00
49194;BME280;35029;50.804;12.866;2023-07-30T05:27:33;97167.03;;;17.96;100.00
49194;BME280;35029;50.804;12.866;2023-07-30T05:29:58;97163.28;;;17.97;100.00
49194;BME280;35029;50.804;12.866;2023-07-30T05:32:25;97147.09;;;17.87;100.00
49194;BME280;35029;50.804;12.866;2023-07-30T05:34:51;97176.97;;;18.01;100.00
49194;BME280;35029;50.804;12.866;2023-07-30T05:37:16;97174.28;;;17.96;100.00
49194;BME280;35029;50.804;12.866;2023-07-30T05:39:42;97182.84;;;17.98;100.00
49194;BME280;35029;50.804;12.866;2023-07-30T05:42:07;97174.28;;;17.96;100.00
49194;BME280;35029;50.804;12.866;2023-07-30T05:44:33;97152.88;;;17.73;100.00
49194;BME280;35029;50.804;12.866;2023-07-30T05:46:58;97191.09;;;17.91;100.00
49194;BME280;35029;50.804;12.866;2023-07-30T05:49:24;97193.78;;;17.91;100.00
49194;BME280;35029;50.804;12.866;2023-07-30T05:51:50;97192.16;;;17.90;100.00
49194;BME280;35029;50.804;12.866;2023-07-30T05:54:16;97198.81;;;17.82;100.00
49194;BME280;35029;50.804;12.866;2023-07-30T05:56:44;97191.88;;;17.86;100.00
49194;BME280;35029;50.804;12.866;2023-07-30T05:59:18;97190.06;;;17.92;100.00
49194;BME280;35029;50.804;12.866;2023-07-30T06:01:46;97204.00;;;17.94;100.00
49194;BME280;35029;50.804;12.866;2023-07-30T06:04:24;97186.31;;;17.93;100.00
49194;BME280;35029;50.804;12.866;2023-07-30T06:07:04;97198.16;;;17.97;100.00
49194;BME280;35029;50.804;12.866;2023-07-30T06:09:30;97206.47;;;17.96;100.00
49194;BME280;35029;50.804;12.866;2023-07-30T06:11:58;97200.09;;;18.07;100.00
49194;BME280;35029;50.804;12.866;2023-07-30T06:14:24;97201.72;;;18.08;100.00
49194;BME280;35029;50.804;12.866;2023-07-30T06:16:51;97214.94;;;18.20;100.00
49194;BME280;35029;50.804;12.866;2023-07-30T06:19:17;97218.97;;;18.22;100.00
49194;BME280;35029;50.804;12.866;2023-07-30T06:21:42;97203.34;;;18.14;100.00
49194;BME280;35029;50.804;12.866;2023-07-30T06:24:08;97217.69;;;18.30;100.00
49194;BME280;35029;50.804;12.866;2023-07-30T06:26:33;97222.84;;;18.37;100.00
49194;BME280;35029;50.804;12.866;2023-07-30T06:28:59;97213.78;;;18.48;100.00
49194;BME280;35029;50.804;12.866;2023-07-30T06:31:25;97227.03;;;18.70;100.00
49194;BME280;35029;50.804;12.866;2023-07-30T06:33:50;97230.63;;;18.86;100.00
49194;BME280;35029;50.804;12.866;2023-07-30T06:36:16;97229.88;;;18.96;100.00
49194;BME280;35029;50.804;12.866;2023-07-30T06:38:42;97229.78;;;18.81;100.00
49194;BME280;35029;50.804;12.866;2023-07-30T06:41:07;97239.00;;;18.90;100.00
49194;BME280;35029;50.804;12.866;2023-07-30T06:43:33;97213.66;;;18.75;100.00
49194;BME280;35029;50.804;12.866;2023-07-30T06:45:58;97236.00;;;18.86;100.00
49194;BME280;35029;50.804;12.866;2023-07-30T06:48:25;97221.56;;;18.92;100.00
49194;BME280;35029;50.804;12.866;2023-07-30T06:50:51;97238.25;;;19.10;100.00
49194;BME280;35029;50.804;12.866;2023-07-30T06:53:16;97233.09;;;18.93;100.00
49194;BME280;35029;50.804;12.866;2023-07-30T06:55:42;97245.22;;;19.01;100.00
49194;BME280;35029;50.804;12.866;2023-07-30T06:58:07;97223.72;;;18.96;100.00
49194;BME280;35029;50.804;12.866;2023-07-30T07:00:33;97236.53;;;18.83;100.00
49194;BME280;35029;50.804;12.866;2023-07-30T07:02:58;97247.09;;;19.00;100.00
49194;BME280;35029;50.804;12.866;2023-07-30T07:05:24;97242.53;;;19.01;100.00
49194;BME280;35029;50.804;12.866;2023-07-30T07:07:50;97248.44;;;19.03;100.00
49194;BME280;35029;50.804;12.866;2023-07-30T07:10:15;97252.88;;;18.77;100.00
49194;BME280;35029;50.804;12.866;2023-07-30T07:12:41;97243.75;;;18.78;100.00
49194;BME280;35029;50.804;12.866;2023-07-30T07:15:07;97229.38;;;18.56;100.00
49194;BME280;35029;50.804;12.866;2023-07-30T07:17:33;97217.28;;;18.49;100.00
49194;BME280;35029;50.804;12.866;2023-07-30T07:20:00;97244.25;;;18.74;100.00
49194;BME280;35029;50.804;12.866;2023-07-30T07:22:26;97223.25;;;18.66;100.00
49194;BME280;35029;50.804;12.866;2023-07-30T07:24:53;97246.00;;;18.91;100.00
49194;BME280;35029;50.804;12.866;2023-07-30T07:27:19;97252.19;;;18.97;100.00
49194;BME280;35029;50.804;12.866;2023-07-30T07:29:45;97236.53;;;18.83;100.00
49194;BME280;35029;50.804;12.866;2023-07-30T07:32:10;97251.88;;;18.88;100.00
49194;BME280;35029;50.804;12.866;2023-07-30T07:34:36;97251.59;;;18.89;100.00
49194;BME280;35029;50.804;12.866;2023-07-30T07:37:02;97250.88;;;18.99;100.00
49194;BME280;35029;50.804;12.866;2023-07-30T07:39:28;97253.03;;;19.02;100.00
49194;BME280;35029;50.804;12.866;2023-07-30T07:41:55;97256.25;;;18.99;100.00
49194;BME280;35029;50.804;12.866;2023-07-30T07:44:21;97261.09;;;19.02;100.00
49194;BME280;35029;50.804;12.866;2023-07-30T07:46:47;97259.22;;;19.08;100.00
49194;BME280;35029;50.804;12.866;2023-07-30T07:49:13;97257.09;;;19.15;100.00
49194;BME280;35029;50.804;12.866;2023-07-30T07:51:39;97262.78;;;19.24;100.00
49194;BME280;35029;50.804;12.866;2023-07-30T07:54:05;97255.25;;;19.26;100.00
49194;BME280;35029;50.804;12.866;2023-07-30T07:56:31;97246.66;;;19.29;100.00
49194;BME280;35029;50.804;12.866;2023-07-30T07:58:57;97251.53;;;19.32;100.00
49194;BME280;35029;50.804;12.866;2023-07-30T08:01:23;97251.81;;;19.41;100.00
49194;BME280;35029;50.804;12.866;2023-07-30T08:03:48;97250.19;;;19.40;100.00
49194;BME280;35029;50.804;12.866;2023-07-30T08:06:14;97252.94;;;19.55;100.00
49194;BME280;35029;50.804;12.866;2023-07-30T08:08:40;97248.94;;;19.79;100.00
49194;BME280;35029;50.804;12.866;2023-07-30T08:11:06;97248.38;;;19.76;100.00
49194;BME280;35029;50.804;12.866;2023-07-30T08:13:36;97253.03;;;20.02;100.00
49194;BME280;35029;50.804;12.866;2023-07-30T08:16:02;97228.22;;;19.79;100.00
49194;BME280;35029;50.804;12.866;2023-07-30T08:18:28;97257.59;;;20.27;100.00
49194;BME280;35029;50.804;12.866;2023-07-30T08:20:54;97240.38;;;20.23;100.00
49194;BME280;35029;50.804;12.866;2023-07-30T08:23:20;97260.81;;;20.39;98.61
49194;BME280;35029;50.804;12.866;2023-07-30T08:25:45;97256.50;;;20.43;98.78
49194;BME280;35029;50.804;12.866;2023-07-30T08:28:11;97267.53;;;20.57;100.00
49194;BME280;35029;50.804;12.866;2023-07-30T08:30:37;97267.53;;;20.37;99.72
49194;BME280;35029;50.804;12.866;2023-07-30T08:33:02;97258.66;;;20.10;99.95
49194;BME280;35029;50.804;12.866;2023-07-30T08:35:29;97252.75;;;20.08;100.00
49194;BME280;35029;50.804;12.866;2023-07-30T08:37:55;97236.06;;;20.12;98.82
49194;BME280;35029;50.804;12.866;2023-07-30T08:40:22;97253.00;;;20.48;97.33
49194;BME280;35029;50.804;12.866;2023-07-30T08:42:52;97234.41;;;20.57;99.56
49194;BME280;35029;50.804;12.866;2023-07-30T08:45:18;97239.88;;;21.22;96.73
49194;BME280;35029;50.804;12.866;2023-07-30T08:47:45;97237.94;;;21.28;90.03
49194;BME280;35029;50.804;12.866;2023-07-30T08:50:12;97240.03;;;21.47;90.20
49194;BME280;35029;50.804;12.866;2023-07-30T08:52:40;97240.97;;;21.71;89.16
49194;BME280;35029;50.804;12.866;2023-07-30T08:55:13;97239.47;;;21.50;88.36
49194;BME280;35029;50.804;12.866;2023-07-30T08:57:52;97241.41;;;21.39;93.39
49194;BME280;35029;50.804;12.866;2023-07-30T09:00:19;97250.75;;;21.02;91.18
49194;BME280;35029;50.804;12.866;2023-07-30T09:02:54;97251.00;;;21.05;94.92
49194;BME280;35029;50.804;12.866;2023-07-30T09:05:21;97251.81;;;21.01;94.69
49194;BME280;35029;50.804;12.866;2023-07-30T09:07:50;97231.94;;;20.81;90.79
49194;BME280;35029;50.804;12.866;2023-07-30T09:10:15;97205.84;;;20.76;91.30
49194;BME280;35029;50.804;12.866;2023-07-30T09:12:41;97242.72;;;20.76;92.02
49194;BME280;35029;50.804;12.866;2023-07-30T09:15:07;97258.91;;;20.76;92.70
49194;BME280;35029;50.804;12.866;2023-07-30T09:17:34;97253.22;;;20.77;92.02
49194;BME280;35029;50.804;12.866;2023-07-30T09:20:01;97230.59;;;20.79;91.42
49194;BME280;35029;50.804;12.866;2023-07-30T09:22:31;97250.22;;;21.00;93.21
49194;BME280;35029;50.804;12.866;2023-07-30T09:25:02;97256.59;;;21.24;93.23
49194;BME280;35029;50.804;12.866;2023-07-30T09:27:31;97242.63;;;21.67;90.69
49194;BME280;35029;50.804;12.866;2023-07-30T09:29:58;97253.91;;;21.74;90.34
49194;BME280;35029;50.804;12.866;2023-07-30T09:32:30;97248.19;;;21.81;79.21
49194;BME280;35029;50.804;12.866;2023-07-30T09:35:10;97251.91;;;22.25;80.72
49194;BME280;35029;50.804;12.866;2023-07-30T09:37:41;97253.81;;;22.24;80.64
49194;BME280;35029;50.804;12.866;2023-07-30T09:40:08;97260.88;;;21.81;73.72
49194;BME280;35029;50.804;12.866;2023-07-30T09:42:36;97254.53;;;22.01;76.45
49194;BME280;35029;50.804;12.866;2023-07-30T09:45:06;97244.28;;;22.32;73.62
49194;BME280;35029;50.804;12.866;2023-07-30T09:47:37;97251.88;;;22.30;71.03
49194;BME280;35029;50.804;12.866;2023-07-30T09:50:03;97247.78;;;22.33;71.58
49194;BME280;35029;50.804;12.866;2023-07-30T09:52:29;97247.13;;;22.51;70.84
49194;BME280;35029;50.804;12.866;2023-07-30T09:54:59;97253.22;;;22.62;67.53
49194;BME280;35029;50.804;12.866;2023-07-30T09:57:25;97253.19;;;22.33;64.43
49194;BME280;35029;50.804;12.866;2023-07-30T09:59:51;97244.59;;;22.60;69.94
49194;BME280;35029;50.804;12.866;2023-07-30T10:02:18;97199.31;;;22.52;66.42
49194;BME280;35029;50.804;12.866;2023-07-30T10:04:48;97240.75;;;22.90;66.33
49194;BME280;35029;50.804;12.866;2023-07-30T10:07:19;97223.34;;;23.02;68.48
49194;BME280;35029;50.804;12.866;2023-07-30T10:09:46;97237.75;;;23.40;66.00
49194;BME280;35029;50.804;12.866;2023-07-30T10:12:21;97221.28;;;23.37;61.72
49194;BME280;35029;50.804;12.866;2023-07-30T10:14:50;97232.53;;;22.76;64.35
49194;BME280;35029;50.804;12.866;2023-07-30T10:17:17;97254.72;;;22.73;67.17
49194;BME280;35029;50.804;12.866;2023-07-30T10:19:46;97253.47;;;22.90;57.32
49194;BME280;35029;50.804;12.866;2023-07-30T10:24:41;97244.50;;;23.19;56.03
49194;BME280;35029;50.804;12.866;2023-07-30T10:27:24;97237.47;;;23.18;55.52
49194;BME280;35029;50.804;12.866;2023-07-30T10:30:17;97232.25;;;23.02;56.58
49194;BME280;35029;50.804;12.866;2023-07-30T10:32:59;97232.97;;;22.84;57.97
49194;BME280;35029;50.804;12.866;2023-07-30T10:38:19;97224.13;;;23.26;58.72
49194;BME280;35029;50.804;12.866;2023-07-30T10:41:24;97228.75;;;23.64;58.47
49194;BME280;35029;50.804;12.866;2023-07-30T10:43:51;97234.00;;;23.55;54.84
49194;BME280;35029;50.804;12.866;2023-07-30T10:46:18;97230.50;;;23.36;57.55
49194;BME280;35029;50.804;12.866;2023-07-30T10:48:47;97235.13;;;23.11;57.81
49194;BME280;35029;50.804;12.866;2023-07-30T10:51:16;97223.16;;;23.17;60.91
49194;BME280;35029;50.804;12.866;2023-07-30T10:53:46;97208.22;;;23.01;60.04
49194;BME280;35029;50.804;12.866;2023-07-30T10:56:13;97219.31;;;22.75;59.82
49194;BME280;35029;50.804;12.866;2023-07-30T10:58:43;97197.63;;;22.56;59.58
49194;BME280;35029;50.804;12.866;2023-07-30T11:01:14;97215.66;;;22.60;59.05
49194;BME280;35029;50.804;12.866;2023-07-30T11:03:40;97223.78;;;22.85;57.68
49194;BME280;35029;50.804;12.866;2023-07-30T11:06:07;97218.50;;;22.99;61.43
49194;BME280;35029;50.804;12.866;2023-07-30T11:08:41;97203.81;;;23.29;58.82
49194;BME280;35029;50.804;12.866;2023-07-30T11:11:09;97213.41;;;23.59;58.25
49194;BME280;35029;50.804;12.866;2023-07-30T11:16:03;97207.09;;;23.26;59.48
49194;BME280;35029;50.804;12.866;2023-07-30T11:18:33;97199.13;;;22.91;58.26
49194;BME280;35029;50.804;12.866;2023-07-30T11:21:08;97204.09;;;22.84;56.81
49194;BME280;35029;50.804;12.866;2023-07-30T11:23:35;97207.06;;;22.83;58.50
49194;BME280;35029;50.804;12.866;2023-07-30T11:26:03;97205.97;;;22.84;59.20
49194;BME280;35029;50.804;12.866;2023-07-30T11:28:36;97208.63;;;22.65;58.67
49194;BME280;35029;50.804;12.866;2023-07-30T11:31:13;97185.69;;;22.62;59.99
49194;BME280;35029;50.804;12.866;2023-07-30T11:33:42;97212.47;;;22.83;61.78
49194;BME280;35029;50.804;12.866;2023-07-30T11:36:12;97213.91;;;22.99;61.37
49194;BME280;35029;50.804;12.866;2023-07-30T11:38:39;97209.47;;;23.08;57.79
49194;BME280;35029;50.804;12.866;2023-07-30T11:41:07;97190.63;;;23.03;58.82
49194;BME280;35029;50.804;12.866;2023-07-30T11:43:41;97207.84;;;23.12;58.59
49194;BME280;35029;50.804;12.866;2023-07-30T11:46:17;97197.41;;;23.01;58.10
49194;BME280;35029;50.804;12.866;2023-07-30T11:48:50;97193.25;;;23.08;60.67
49194;BME280;35029;50.804;12.866;2023-07-30T11:51:26;97198.25;;;23.39;55.03
49194;BME280;35029;50.804;12.866;2023-07-30T11:53:56;97198.84;;;23.55;57.34
49194;BME280;35029;50.804;12.866;2023-07-30T11:59:00;97203.47;;;23.55;56.28
49194;BME280;35029;50.804;12.866;2023-07-30T12:01:28;97190.78;;;23.88;56.37
49194;BME280;35029;50.804;12.866;2023-07-30T12:03:59;97202.00;;;24.14;52.22
49194;BME280;35029;50.804;12.866;2023-07-30T12:06:48;97195.13;;;24.36;52.29
49194;BME280;35029;50.804;12.866;2023-07-30T12:09:15;97188.16;;;24.91;53.50
49194;BME280;35029;50.804;12.866;2023-07-30T12:11:56;97158.66;;;24.75;54.57
49194;BME280;35029;50.804;12.866;2023-07-30T12:14:44;97184.22;;;24.55;50.19
49194;BME280;35029;50.804;12.866;2023-07-30T12:17:10;97182.91;;;24.53;49.28
49194;BME280;35029;50.804;12.866;2023-07-30T12:19:36;97185.84;;;24.98;51.28
49194;BME280;35029;50.804;12.866;2023-07-30T12:22:02;97183.72;;;25.09;51.79
49194;BME280;35029;50.804;12.866;2023-07-30T12:24:28;97188.50;;;25.40;52.17
49194;BME280;35029;50.804;12.866;2023-07-30T12:26:55;97186.38;;;25.73;51.64
49194;BME280;35029;50.804;12.866;2023-07-30T12:29:20;97144.88;;;25.50;50.52
49194;BME280;35029;50.804;12.866;2023-07-30T12:31:46;97180.34;;;25.76;50.49
49194;BME280;35029;50.804;12.866;2023-07-30T12:34:13;97159.00;;;25.61;52.40
49194;BME280;35029;50.804;12.866;2023-07-30T12:36:39;97189.16;;;25.82;54.79
49194;BME280;35029;50.804;12.866;2023-07-30T12:39:06;97181.88;;;25.46;51.63
49194;BME280;35029;50.804;12.866;2023-07-30T12:41:33;97179.22;;;25.55;54.37
49194;BME280;35029;50.804;12.866;2023-07-30T12:43:58;97172.06;;;25.59;53.98
49194;BME280;35029;50.804;12.866;2023-07-30T12:46:26;97161.09;;;25.87;52.46
49194;BME280;35029;50.804;12.866;2023-07-30T12:48:55;97171.31;;;25.67;50.88
49194;BME280;35029;50.804;12.866;2023-07-30T12:51:22;97168.53;;;25.22;51.92
49194;BME280;35029;50.804;12.866;2023-07-30T12:53:49;97173.13;;;24.85;51.14